Time;durP1;ratioP1;P1;durP2;ratioP2;P2;SDS_P1;SDS_P2;PMS_P1;PMS_P2;Temp;Humidity;BMP_temperature;BMP_pressure;BME280_temperature;BME280_humidity;BME280_pressure;Samples;Min_cycle;Max_cycle;Signal;HPM_P1;HPM_P2
2023/01/01 00:01:08;;;;;;;24.60;16.23;;;8.70;99.90;;;;;;5034640;28;20681;-70
2023/01/01 00:03:35;;;;;;;24.47;16.93;;;8.70;99.90;;;;;;5015219;28;20230;-71
2023/01/01 00:06:05;;;;;;;22.20;15.93;;;8.70;99.90;;;;;;5024084;28;20793;-67
2023/01/01 00:08:32;;;;;;;24.97;16.37;;;8.80;99.90;;;;;;5014507;28;20194;-68
2023/01/01 00:11:02;;;;;;;23.70;16.13;;;8.80;99.90;;;;;;4995050;28;20568;-68
2023/01/01 00:13:29;;;;;;;21.13;15.03;;;8.80;99.90;;;;;;5006022;28;20218;-66
2023/01/01 00:15:55;;;;;;;23.53;16.13;;;8.80;99.90;;;;;;5011660;28;20722;-68
2023/01/01 00:18:22;;;;;;;22.57;15.03;;;8.80;99.90;;;;;;5020554;28;20206;-69
2023/01/01 00:20:49;;;;;;;24.90;16.13;;;8.80;99.90;;;;;;5014283;28;20701;-71
2023/01/01 00:23:16;;;;;;;23.70;15.20;;;8.80;99.90;;;;;;5013824;28;20217;-69
2023/01/01 00:25:43;;;;;;;22.20;14.73;;;8.90;99.90;;;;;;5014688;28;20210;-67
2023/01/01 00:28:11;;;;;;;24.03;16.30;;;8.90;99.90;;;;;;5014473;28;20225;-69
2023/01/01 00:30:41;;;;;;;27.27;17.80;;;8.90;99.90;;;;;;5014357;28;20203;-72
2023/01/01 00:33:08;;;;;;;24.03;17.33;;;8.90;99.90;;;;;;5014138;28;20659;-71
2023/01/01 00:35:35;;;;;;;22.67;15.63;;;8.90;99.90;;;;;;5013817;28;20242;-71
2023/01/01 00:38:01;;;;;;;21.63;14.97;;;8.90;99.90;;;;;;5014353;28;20191;-72
2023/01/01 00:40:28;;;;;;;22.17;14.90;;;9.00;99.90;;;;;;5013835;28;20203;-72
2023/01/01 00:42:55;;;;;;;20.23;14.10;;;9.00;99.90;;;;;;5014080;28;20215;-72
2023/01/01 00:45:23;;;;;;;20.57;13.53;;;9.00;99.90;;;;;;5013569;28;20241;-73
2023/01/01 00:47:52;;;;;;;21.83;14.83;;;9.00;99.90;;;;;;5012418;28;20207;-72
2023/01/01 00:50:19;;;;;;;20.00;13.83;;;9.00;99.90;;;;;;5013664;28;20217;-71
2023/01/01 00:52:47;;;;;;;26.00;14.90;;;9.00;99.90;;;;;;5013952;28;20211;-72
2023/01/01 00:55:14;;;;;;;21.20;14.67;;;9.10;99.90;;;;;;5013515;28;20231;-72
2023/01/01 00:57:41;;;;;;;20.10;14.20;;;9.10;99.90;;;;;;5013780;28;20234;-73
2023/01/01 01:00:09;;;;;;;19.20;13.10;;;9.10;99.90;;;;;;5013625;28;20209;-71
2023/01/01 01:02:38;;;;;;;21.37;14.53;;;9.10;99.90;;;;;;5013995;28;20229;-72
2023/01/01 01:05:05;;;;;;;23.33;14.90;;;9.10;99.90;;;;;;5013775;28;20664;-73
2023/01/01 01:07:35;;;;;;;21.43;14.53;;;9.10;99.90;;;;;;5013908;28;20573;-71
2023/01/01 01:10:02;;;;;;;20.37;14.43;;;9.10;99.90;;;;;;5013504;28;20202;-72
2023/01/01 01:12:28;;;;;;;23.50;14.67;;;9.10;99.90;;;;;;5023329;28;20209;-73
2023/01/01 01:14:55;;;;;;;22.37;14.60;;;9.10;99.90;;;;;;5013149;28;20214;-67
2023/01/01 01:17:22;;;;;;;23.03;14.13;;;9.10;99.90;;;;;;5011153;28;20203;-68
2023/01/01 01:19:50;;;;;;;20.87;14.43;;;9.10;99.90;;;;;;5013291;28;20559;-68
2023/01/01 01:22:17;;;;;;;23.10;14.17;;;9.10;99.90;;;;;;5013122;28;20540;-69
2023/01/01 01:24:43;;;;;;;22.47;14.70;;;9.10;99.90;;;;;;5013303;28;20232;-69
2023/01/01 01:27:10;;;;;;;21.60;14.00;;;9.20;99.90;;;;;;5012264;28;20210;-69
2023/01/01 01:29:37;;;;;;;23.60;15.07;;;9.20;99.90;;;;;;5013248;28;20568;-68
2023/01/01 01:32:04;;;;;;;23.93;14.83;;;9.10;99.90;;;;;;5012823;28;20213;-69
2023/01/01 01:34:31;;;;;;;24.73;14.93;;;9.10;99.90;;;;;;5012972;28;20233;-70
2023/01/01 01:36:59;;;;;;;18.63;13.77;;;9.10;99.90;;;;;;5012731;28;20730;-68
2023/01/01 01:39:26;;;;;;;21.63;15.40;;;9.20;99.90;;;;;;5012697;28;20678;-69
2023/01/01 01:41:53;;;;;;;20.93;14.27;;;9.20;99.90;;;;;;5012642;28;20194;-68
2023/01/01 01:44:55;;;;;;;21.43;14.40;;;9.20;99.90;;;;;;5012757;28;20687;-68
2023/01/01 01:47:27;;;;;;;22.00;14.33;;;9.10;99.90;;;;;;5012784;28;20198;-68
2023/01/01 01:50:00;;;;;;;21.90;15.13;;;9.10;99.90;;;;;;5012912;28;20195;-69
2023/01/01 01:52:30;;;;;;;22.33;15.07;;;9.20;99.90;;;;;;5012612;28;20191;-69
2023/01/01 01:54:59;;;;;;;22.57;14.57;;;9.10;99.90;;;;;;5012596;28;20215;-68
2023/01/01 01:57:26;;;;;;;22.80;15.57;;;9.10;99.90;;;;;;5012731;28;20257;-69
2023/01/01 01:59:57;;;;;;;21.23;14.60;;;9.10;99.90;;;;;;5012662;28;20225;-69
2023/01/01 02:02:29;;;;;;;20.37;14.17;;;9.10;99.90;;;;;;5012673;28;20195;-67
2023/01/01 02:04:57;;;;;;;20.97;14.80;;;9.10;99.90;;;;;;5012668;28;20187;-69
2023/01/01 02:07:25;;;;;;;21.97;15.10;;;9.10;99.90;;;;;;5012221;28;20211;-68
2023/01/01 02:09:54;;;;;;;21.70;15.00;;;9.10;99.90;;;;;;5012400;28;20687;-68
2023/01/01 02:12:21;;;;;;;21.43;14.57;;;9.10;99.90;;;;;;5028574;28;20205;-69
2023/01/01 02:14:47;;;;;;;22.57;14.37;;;9.10;99.90;;;;;;5017320;28;20706;-67
2023/01/01 02:17:24;;;;;;;20.80;14.53;;;9.10;99.90;;;;;;5011749;28;20207;-68
2023/01/01 02:20:07;;;;;;;18.43;13.43;;;9.10;99.90;;;;;;5011604;28;20219;-68
2023/01/01 02:23:02;;;;;;;21.20;13.93;;;9.10;99.90;;;;;;5009674;28;20544;-68
2023/01/01 02:25:38;;;;;;;21.87;14.50;;;9.10;99.90;;;;;;5010005;28;20195;-68
2023/01/01 02:28:15;;;;;;;19.70;13.50;;;9.10;99.90;;;;;;5012088;28;20539;-68
2023/01/01 02:30:45;;;;;;;19.50;13.70;;;9.10;99.90;;;;;;5012180;28;20261;-68
2023/01/01 02:33:16;;;;;;;18.63;12.90;;;9.10;99.90;;;;;;5011994;28;20708;-67
2023/01/01 02:35:47;;;;;;;19.77;13.60;;;9.20;99.90;;;;;;5011927;28;20230;-67
2023/01/01 02:38:18;;;;;;;20.13;13.90;;;9.20;99.90;;;;;;5011833;28;20650;-68
2023/01/01 02:40:48;;;;;;;18.57;13.43;;;9.20;99.90;;;;;;5011890;28;20278;-68
2023/01/01 02:43:16;;;;;;;18.30;13.23;;;9.20;99.90;;;;;;5011815;28;20187;-67
2023/01/01 02:45:44;;;;;;;18.23;13.17;;;9.20;99.90;;;;;;5011916;28;20209;-72
2023/01/01 02:48:36;;;;;;;19.23;13.23;;;9.20;99.90;;;;;;5011595;28;20654;-72
2023/01/01 02:51:09;;;;;;;19.33;12.87;;;9.20;99.90;;;;;;5011913;28;20548;-73
2023/01/01 02:53:39;;;;;;;18.57;12.87;;;9.20;99.90;;;;;;5012054;28;20656;-73
2023/01/01 02:56:12;;;;;;;21.73;13.37;;;9.20;99.90;;;;;;5012160;28;20230;-72
2023/01/01 03:01:39;;;;;;;19.83;12.60;;;9.20;99.90;;;;;;5011892;28;20294;-71
2023/01/01 03:04:14;;;;;;;20.47;12.80;;;9.20;99.90;;;;;;5011564;28;20193;-74
2023/01/01 03:06:46;;;;;;;17.50;11.93;;;9.20;99.90;;;;;;4992329;28;20193;-72
2023/01/01 03:09:20;;;;;;;17.30;11.83;;;9.20;99.90;;;;;;4992178;28;20203;-73
2023/01/01 03:11:55;;;;;;;18.07;12.77;;;9.20;99.90;;;;;;5015972;28;20268;-71
2023/01/01 03:14:29;;;;;;;17.73;12.50;;;9.30;99.90;;;;;;5031814;28;20197;-71
2023/01/01 03:17:02;;;;;;;16.77;11.40;;;9.30;99.90;;;;;;5031381;28;20780;-72
2023/01/01 03:19:34;;;;;;;16.07;11.70;;;9.30;99.90;;;;;;5031466;28;20195;-73
2023/01/01 03:22:05;;;;;;;16.50;11.83;;;9.30;99.90;;;;;;5023565;28;20214;-73
2023/01/01 03:24:35;;;;;;;17.40;11.30;;;9.30;99.90;;;;;;5011824;28;20191;-72
2023/01/01 03:27:06;;;;;;;17.80;11.13;;;9.40;99.90;;;;;;5011435;28;20202;-68
2023/01/01 03:29:38;;;;;;;15.60;11.10;;;9.40;99.90;;;;;;5011399;28;20200;-68
2023/01/01 03:32:11;;;;;;;16.70;11.57;;;9.40;99.90;;;;;;5011598;28;20242;-69
2023/01/01 03:34:41;;;;;;;17.30;11.40;;;9.40;99.90;;;;;;5011649;28;20286;-68
2023/01/01 03:37:12;;;;;;;15.23;10.53;;;9.40;99.90;;;;;;5011010;28;20234;-69
2023/01/01 03:39:45;;;;;;;15.33;10.83;;;9.40;99.90;;;;;;5011068;28;20207;-68
2023/01/01 03:42:21;;;;;;;16.43;11.37;;;9.40;99.90;;;;;;5011687;28;20198;-69
2023/01/01 03:44:52;;;;;;;15.57;10.57;;;9.40;99.90;;;;;;5011122;28;20202;-69
2023/01/01 03:47:20;;;;;;;15.67;10.77;;;9.40;99.90;;;;;;5011554;28;20195;-68
2023/01/01 03:49:47;;;;;;;16.43;11.37;;;9.50;99.90;;;;;;5011380;28;20209;-69
2023/01/01 03:52:32;;;;;;;16.60;10.93;;;9.40;99.90;;;;;;5014934;28;20214;-68
2023/01/01 03:55:05;;;;;;;16.97;11.13;;;9.50;99.90;;;;;;5014424;28;20206;-69
2023/01/01 03:57:41;;;;;;;16.30;11.07;;;9.50;99.90;;;;;;5014598;28;20221;-68
2023/01/01 04:00:15;;;;;;;15.27;10.80;;;9.50;99.90;;;;;;5014715;28;20203;-68
2023/01/01 04:02:48;;;;;;;16.47;11.27;;;9.50;99.90;;;;;;5014360;28;20195;-67
2023/01/01 04:05:17;;;;;;;16.03;11.53;;;9.50;99.90;;;;;;5014728;28;20195;-69
2023/01/01 04:07:44;;;;;;;15.43;11.33;;;9.50;99.90;;;;;;5014458;28;20249;-68
2023/01/01 04:10:17;;;;;;;15.83;10.80;;;9.50;99.90;;;;;;5014562;28;20221;-69
2023/01/01 04:12:46;;;;;;;16.90;10.90;;;9.50;99.90;;;;;;5013903;28;20221;-69
2023/01/01 04:15:13;;;;;;;16.90;11.03;;;9.50;99.90;;;;;;5014416;28;20554;-67
2023/01/01 04:17:40;;;;;;;14.37;10.23;;;9.50;99.90;;;;;;5014236;28;20213;-68
2023/01/01 04:20:09;;;;;;;14.73;10.23;;;9.50;99.90;;;;;;5014384;28;20237;-68
2023/01/01 04:22:36;;;;;;;15.40;10.33;;;9.50;99.90;;;;;;5014192;28;20214;-69
2023/01/01 04:25:04;;;;;;;15.17;11.13;;;9.60;99.90;;;;;;5014141;28;20202;-68
2023/01/01 04:27:30;;;;;;;14.60;10.33;;;9.60;99.90;;;;;;5013981;28;20207;-69
2023/01/01 04:29:57;;;;;;;15.33;10.30;;;9.60;99.90;;;;;;5013866;28;20578;-67
2023/01/01 04:32:24;;;;;;;14.73;10.07;;;9.60;99.90;;;;;;5013750;28;20227;-69
2023/01/01 04:34:51;;;;;;;14.13;10.27;;;9.60;99.90;;;;;;5013992;28;20674;-68
2023/01/01 04:37:19;;;;;;;17.07;10.70;;;9.60;99.90;;;;;;5013698;28;20794;-68
2023/01/01 04:39:45;;;;;;;15.47;10.10;;;9.60;99.90;;;;;;5013743;28;20560;-71
2023/01/01 04:42:12;;;;;;;15.23;10.43;;;9.60;99.90;;;;;;5013467;28;20199;-69
2023/01/01 04:44:39;;;;;;;13.60;9.63;;;9.60;99.90;;;;;;5013950;28;20233;-67
2023/01/01 04:47:06;;;;;;;14.13;9.97;;;9.70;99.90;;;;;;5013278;28;20203;-68
2023/01/01 04:49:33;;;;;;;14.17;9.50;;;9.70;99.90;;;;;;5010758;28;20209;-72
2023/01/01 04:52:00;;;;;;;15.30;10.33;;;9.70;99.90;;;;;;5013524;28;20582;-68
2023/01/01 04:54:28;;;;;;;13.57;9.73;;;9.70;99.90;;;;;;5013309;28;20206;-70
2023/01/01 04:56:55;;;;;;;13.63;9.73;;;9.60;99.90;;;;;;5010715;28;20257;-69
2023/01/01 04:59:21;;;;;;;14.87;10.37;;;9.60;99.90;;;;;;5013098;28;20198;-67
2023/01/01 05:01:48;;;;;;;14.83;9.80;;;9.60;99.90;;;;;;5013005;28;20209;-67
2023/01/01 05:04:16;;;;;;;14.70;9.47;;;9.60;99.90;;;;;;5011963;28;20231;-68
2023/01/01 05:06:43;;;;;;;12.93;9.53;;;9.60;99.90;;;;;;5012577;28;20655;-68
2023/01/01 05:09:11;;;;;;;14.33;9.90;;;9.60;99.90;;;;;;5012899;28;20209;-69
2023/01/01 05:11:39;;;;;;;13.80;9.57;;;9.50;99.90;;;;;;5012809;28;20695;-70
2023/01/01 05:14:07;;;;;;;13.60;9.47;;;9.50;99.90;;;;;;5009533;28;20206;-68
2023/01/01 05:16:36;;;;;;;14.10;9.63;;;9.50;99.90;;;;;;5012831;28;20682;-72
2023/01/01 05:19:03;;;;;;;13.63;9.40;;;9.40;99.90;;;;;;5013088;28;20546;-69
2023/01/01 05:21:33;;;;;;;13.37;9.60;;;9.40;99.90;;;;;;5012424;28;20285;-68
2023/01/01 05:24:02;;;;;;;12.40;9.00;;;9.40;99.90;;;;;;5012794;28;20199;-67
2023/01/01 05:26:32;;;;;;;12.70;9.47;;;9.40;99.90;;;;;;5012494;28;20207;-67
2023/01/01 05:29:01;;;;;;;12.63;9.40;;;9.40;99.90;;;;;;5010740;28;20211;-68
2023/01/01 05:31:32;;;;;;;13.77;9.13;;;9.30;99.90;;;;;;5012483;28;20194;-68
2023/01/01 05:33:59;;;;;;;13.23;8.93;;;9.30;99.90;;;;;;5010688;28;20611;-69
2023/01/01 05:36:28;;;;;;;12.77;8.93;;;9.30;99.90;;;;;;5012145;28;20226;-69
2023/01/01 05:38:55;;;;;;;13.87;9.43;;;9.20;99.90;;;;;;5009775;28;20207;-67
2023/01/01 05:41:23;;;;;;;12.53;8.87;;;9.20;99.90;;;;;;5012472;28;20205;-68
2023/01/01 05:43:51;;;;;;;14.17;9.33;;;9.20;99.90;;;;;;5012006;28;20675;-69
2023/01/01 05:46:21;;;;;;;14.90;9.23;;;9.20;99.90;;;;;;5012645;28;20191;-69
2023/01/01 05:48:48;;;;;;;13.50;8.93;;;9.20;99.90;;;;;;5012443;28;20655;-69
2023/01/01 05:51:17;;;;;;;14.60;9.13;;;9.20;99.90;;;;;;5012409;28;20199;-68
2023/01/01 05:53:44;;;;;;;15.10;10.13;;;9.20;99.90;;;;;;5011934;28;20206;-69
2023/01/01 05:56:12;;;;;;;12.83;9.20;;;9.20;99.90;;;;;;5009807;28;20219;-69
2023/01/01 05:58:39;;;;;;;13.00;8.83;;;9.20;99.90;;;;;;5009976;28;20206;-70
2023/01/01 06:01:08;;;;;;;12.97;9.10;;;9.20;99.90;;;;;;5011119;28;20221;-70
2023/01/01 06:03:36;;;;;;;13.87;9.10;;;9.20;99.90;;;;;;5012065;28;20214;-69
2023/01/01 06:06:04;;;;;;;13.47;8.57;;;9.10;99.90;;;;;;5009319;28;20647;-68
2023/01/01 06:08:31;;;;;;;13.10;9.37;;;9.10;99.90;;;;;;5011852;28;20233;-66
2023/01/01 06:11:00;;;;;;;12.50;8.60;;;9.10;99.90;;;;;;5009889;28;20214;-67
2023/01/01 06:13:26;;;;;;;14.97;9.70;;;9.10;99.90;;;;;;5011371;28;20210;-65
2023/01/01 06:15:55;;;;;;;15.17;9.13;;;9.10;99.90;;;;;;5011178;28;20211;-66
2023/01/01 06:18:21;;;;;;;14.27;9.70;;;9.10;99.90;;;;;;4992302;28;20274;-65
2023/01/01 06:20:50;;;;;;;10.53;8.03;;;9.00;99.90;;;;;;5009658;28;20206;-65
2023/01/01 06:23:17;;;;;;;14.87;8.77;;;9.10;99.90;;;;;;5011648;28;20227;-65
2023/01/01 06:25:44;;;;;;;12.50;8.67;;;9.10;99.90;;;;;;5012116;28;20217;-66
2023/01/01 06:28:11;;;;;;;12.30;8.63;;;9.10;99.90;;;;;;5011633;28;20206;-66
2023/01/01 06:30:38;;;;;;;10.33;8.07;;;9.10;99.90;;;;;;5011303;28;20212;-66
2023/01/01 06:33:05;;;;;;;11.80;8.63;;;9.10;99.90;;;;;;5009426;28;20206;-65
2023/01/01 06:35:31;;;;;;;12.77;8.87;;;9.10;99.90;;;;;;5011697;28;20246;-66
2023/01/01 06:38:00;;;;;;;12.30;8.30;;;9.10;99.90;;;;;;5011693;28;20301;-68
2023/01/01 06:40:27;;;;;;;11.23;8.07;;;9.10;99.90;;;;;;5011217;28;20218;-67
2023/01/01 06:42:54;;;;;;;11.40;7.70;;;9.20;99.90;;;;;;5011230;28;20576;-70
2023/01/01 06:45:20;;;;;;;12.47;8.97;;;9.20;99.90;;;;;;5011598;28;20213;-69
2023/01/01 06:47:47;;;;;;;12.03;8.60;;;9.20;99.90;;;;;;5011375;28;20213;-70
2023/01/01 06:50:14;;;;;;;13.03;8.37;;;9.20;99.90;;;;;;5011279;28;20293;-71
2023/01/01 06:52:40;;;;;;;12.33;7.80;;;9.20;99.90;;;;;;5011251;28;20207;-72
2023/01/01 06:55:09;;;;;;;11.27;7.70;;;9.20;99.90;;;;;;5012451;28;20203;-73
2023/01/01 06:57:36;;;;;;;10.47;7.63;;;9.20;99.90;;;;;;5011948;28;20222;-71
2023/01/01 07:00:03;;;;;;;10.70;7.83;;;9.20;99.90;;;;;;5011880;28;20210;-72
2023/01/01 07:02:30;;;;;;;10.43;7.63;;;9.30;99.90;;;;;;5011433;28;20214;-72
2023/01/01 07:04:57;;;;;;;10.40;7.77;;;9.30;99.90;;;;;;5013278;28;20222;-66
2023/01/01 07:07:23;;;;;;;12.53;8.30;;;9.30;99.90;;;;;;5011347;28;20203;-66
2023/01/01 07:09:50;;;;;;;12.17;7.77;;;9.30;99.90;;;;;;5010844;28;20211;-68
2023/01/01 07:12:18;;;;;;;13.07;8.00;;;9.40;99.90;;;;;;5010495;28;20221;-66
2023/01/01 07:14:45;;;;;;;10.43;7.20;;;9.40;99.90;;;;;;5011496;28;20667;-68
2023/01/01 07:17:12;;;;;;;11.27;7.73;;;9.40;99.90;;;;;;5010915;28;20227;-66
2023/01/01 07:19:38;;;;;;;10.57;7.80;;;9.40;99.90;;;;;;5010307;28;20199;-67
2023/01/01 07:22:05;;;;;;;10.30;7.80;;;9.50;99.90;;;;;;5011123;28;20202;-67
2023/01/01 07:24:32;;;;;;;11.03;7.30;;;9.50;99.90;;;;;;5011287;28;20227;-66
2023/01/01 07:26:59;;;;;;;10.33;7.70;;;9.50;99.90;;;;;;5014742;28;20659;-64
2023/01/01 07:29:27;;;;;;;11.33;8.10;;;9.50;99.90;;;;;;5015010;28;20203;-66
2023/01/01 07:31:53;;;;;;;12.30;7.93;;;9.50;99.90;;;;;;5014715;28;20206;-67
2023/01/01 07:34:22;;;;;;;11.33;8.10;;;9.60;99.90;;;;;;5012908;28;20548;-67
2023/01/01 07:36:49;;;;;;;11.13;7.67;;;9.60;99.90;;;;;;5012071;28;20777;-66
2023/01/01 07:39:16;;;;;;;13.43;7.50;;;9.60;99.90;;;;;;5013989;28;20616;-70
2023/01/01 07:41:43;;;;;;;11.83;7.67;;;9.60;99.90;;;;;;5014825;28;20663;-69
2023/01/01 07:44:10;;;;;;;12.10;8.13;;;9.70;99.90;;;;;;5012024;28;20727;-71
2023/01/01 07:46:38;;;;;;;10.87;7.77;;;9.70;99.90;;;;;;5014768;28;20198;-71
2023/01/01 07:49:04;;;;;;;11.20;7.77;;;9.70;99.90;;;;;;5014632;28;20225;-71
2023/01/01 07:51:31;;;;;;;11.00;8.13;;;9.80;99.90;;;;;;5014978;28;20213;-72
2023/01/01 07:53:58;;;;;;;10.53;7.80;;;9.80;99.90;;;;;;5013379;28;20217;-71
2023/01/01 07:56:25;;;;;;;10.57;7.70;;;9.80;99.90;;;;;;5014716;28;20566;-71
2023/01/01 07:58:52;;;;;;;11.47;7.57;;;9.80;99.90;;;;;;5014441;28;20202;-70
2023/01/01 08:01:19;;;;;;;10.97;7.53;;;9.80;99.90;;;;;;5013954;28;20206;-67
2023/01/01 08:03:51;;;;;;;11.73;7.67;;;9.90;99.90;;;;;;5014020;28;20202;-66
2023/01/01 08:06:18;;;;;;;11.20;7.53;;;9.90;99.90;;;;;;5014491;28;20191;-67
2023/01/01 08:08:45;;;;;;;13.17;7.47;;;9.90;99.90;;;;;;5014120;28;20214;-67
2023/01/01 08:11:11;;;;;;;11.33;7.30;;;10.00;99.90;;;;;;5013515;28;20218;-66
2023/01/01 08:13:38;;;;;;;9.13;6.83;;;10.00;99.90;;;;;;5012542;28;20288;-67
2023/01/01 08:16:05;;;;;;;11.20;7.80;;;10.10;99.90;;;;;;5013838;28;20214;-67
2023/01/01 08:18:32;;;;;;;9.93;7.00;;;10.10;99.90;;;;;;5013000;28;20248;-68
2023/01/01 08:21:00;;;;;;;11.10;7.30;;;10.20;99.90;;;;;;5013209;28;20210;-67
2023/01/01 08:23:27;;;;;;;10.67;6.83;;;10.20;99.90;;;;;;5011335;28;20230;-68
2023/01/01 08:25:57;;;;;;;11.10;7.43;;;10.30;99.90;;;;;;5013778;28;20210;-68
2023/01/01 08:28:24;;;;;;;10.40;7.53;;;10.30;99.90;;;;;;5013045;28;20202;-67
2023/01/01 08:30:51;;;;;;;11.23;7.17;;;10.30;99.90;;;;;;5013326;28;20215;-67
2023/01/01 08:33:18;;;;;;;11.00;7.47;;;10.30;99.90;;;;;;5013225;28;20214;-67
2023/01/01 08:35:44;;;;;;;12.37;7.90;;;10.30;99.90;;;;;;5010442;28;20239;-67
2023/01/01 08:38:13;;;;;;;11.00;7.47;;;10.40;99.90;;;;;;5012162;28;20227;-67
2023/01/01 08:40:40;;;;;;;10.87;7.27;;;10.40;99.90;;;;;;5013182;28;20723;-68
2023/01/01 08:43:06;;;;;;;10.90;7.40;;;10.50;99.90;;;;;;5010299;28;20651;-65
2023/01/01 08:45:33;;;;;;;11.37;7.40;;;10.60;99.90;;;;;;5013418;28;20212;-68
2023/01/01 08:48:00;;;;;;;10.60;7.60;;;10.60;99.90;;;;;;5013030;28;20203;-67
2023/01/01 08:50:27;;;;;;;9.80;7.20;;;10.60;99.90;;;;;;5013323;28;20240;-67
2023/01/01 08:52:54;;;;;;;10.93;7.93;;;10.60;99.90;;;;;;5010244;28;20572;-69
2023/01/01 08:55:22;;;;;;;12.57;8.30;;;10.70;99.90;;;;;;5011196;28;20667;-66
2023/01/01 08:57:48;;;;;;;11.60;7.90;;;10.70;99.90;;;;;;5012987;28;20226;-67
2023/01/01 09:00:16;;;;;;;13.07;9.13;;;10.70;99.90;;;;;;5012955;28;20217;-68
2023/01/01 09:02:43;;;;;;;11.20;7.70;;;10.80;99.90;;;;;;5012089;28;20249;-69
2023/01/01 09:05:10;;;;;;;11.07;8.03;;;10.80;99.90;;;;;;5012764;28;20211;-66
2023/01/01 09:07:37;;;;;;;11.67;7.73;;;10.80;99.90;;;;;;5010760;28;20257;-66
2023/01/01 09:10:05;;;;;;;10.67;7.93;;;10.90;99.90;;;;;;5007254;28;20225;-67
2023/01/01 09:12:33;;;;;;;11.37;7.97;;;10.90;99.90;;;;;;5006382;28;20253;-69
2023/01/01 09:15:00;;;;;;;12.67;8.00;;;11.00;99.90;;;;;;5005717;28;20204;-67
2023/01/01 09:17:27;;;;;;;12.07;7.77;;;11.00;99.90;;;;;;5009446;28;20225;-68
2023/01/01 09:19:53;;;;;;;10.33;7.43;;;11.00;99.90;;;;;;5015528;28;20569;-70
2023/01/01 09:22:20;;;;;;;12.77;7.80;;;11.10;99.90;;;;;;5012674;28;20226;-68
2023/01/01 09:24:47;;;;;;;12.30;7.30;;;11.10;99.90;;;;;;5012739;28;20199;-70
2023/01/01 09:27:14;;;;;;;11.60;7.80;;;11.10;99.90;;;;;;5012749;28;20213;-69
2023/01/01 09:29:42;;;;;;;14.87;7.83;;;11.20;99.90;;;;;;5013933;28;20606;-69
2023/01/01 09:32:08;;;;;;;10.97;7.63;;;11.20;99.90;;;;;;5013745;28;20203;-68
2023/01/01 09:34:35;;;;;;;12.27;7.73;;;11.20;99.90;;;;;;5020465;28;20202;-68
2023/01/01 09:37:02;;;;;;;10.60;7.33;;;11.20;99.90;;;;;;5016675;28;20245;-68
2023/01/01 09:39:29;;;;;;;11.17;7.30;;;11.20;99.90;;;;;;5013141;28;20555;-70
2023/01/01 09:42:11;;;;;;;10.10;7.47;;;11.30;99.90;;;;;;5013087;28;20261;-66
2023/01/01 09:44:58;;;;;;;11.77;7.80;;;11.30;99.90;;;;;;5013802;28;20191;-67
2023/01/01 09:47:29;;;;;;;11.57;7.80;;;11.30;99.90;;;;;;5012052;28;20187;-68
2023/01/01 09:49:59;;;;;;;11.73;7.40;;;11.40;99.90;;;;;;5012690;28;20206;-67
2023/01/01 09:52:34;;;;;;;9.80;7.07;;;11.40;99.90;;;;;;5012467;28;20702;-67
2023/01/01 09:55:06;;;;;;;10.57;7.37;;;11.40;99.90;;;;;;5013347;28;20545;-68
2023/01/01 09:57:33;;;;;;;10.63;7.30;;;11.40;99.90;;;;;;5013545;28;20214;-68
2023/01/01 10:00:02;;;;;;;11.27;7.23;;;11.50;99.90;;;;;;5013094;28;20211;-67
2023/01/01 10:02:42;;;;;;;10.97;7.47;;;11.50;99.90;;;;;;5013478;28;20214;-66
2023/01/01 10:05:21;;;;;;;11.13;7.40;;;11.50;99.90;;;;;;5013247;28;20197;-66
2023/01/01 10:07:54;;;;;;;10.60;7.17;;;11.60;99.90;;;;;;5011338;28;20198;-66
2023/01/01 10:10:33;;;;;;;11.17;7.70;;;11.60;99.90;;;;;;5019417;28;20329;-69
2023/01/01 10:13:06;;;;;;;10.00;7.22;;;11.70;99.90;;;;;;5018074;28;20785;-69
2023/01/01 10:15:37;;;;;;;9.27;7.20;;;11.70;99.90;;;;;;5011685;28;20643;-65
2023/01/01 10:18:09;;;;;;;12.53;7.30;;;11.80;99.90;;;;;;5012859;28;20222;-67
2023/01/01 10:20:40;;;;;;;9.57;7.13;;;11.90;99.90;;;;;;5012234;28;20679;-65
2023/01/01 10:23:24;;;;;;;10.13;7.17;;;11.90;99.90;;;;;;5011924;28;20201;-70
2023/01/01 10:25:51;;;;;;;8.00;6.70;;;12.00;99.90;;;;;;5011791;28;20285;-67
2023/01/01 10:28:23;;;;;;;12.47;7.53;;;12.00;99.90;;;;;;5011261;28;20199;-69
2023/01/01 10:30:54;;;;;;;9.83;7.03;;;12.10;99.90;;;;;;5008818;28;20202;-68
2023/01/01 10:33:21;;;;;;;10.13;6.83;;;12.10;99.90;;;;;;5011483;28;20651;-72
2023/01/01 10:35:51;;;;;;;10.87;7.10;;;12.10;99.90;;;;;;5008630;28;20326;-70
2023/01/01 10:38:22;;;;;;;8.07;6.43;;;12.10;99.90;;;;;;5010352;28;20211;-68
2023/01/01 10:40:50;;;;;;;9.27;6.83;;;12.20;99.90;;;;;;5002610;28;20222;-69
2023/01/01 10:43:17;;;;;;;11.07;7.30;;;12.20;99.90;;;;;;5008836;28;20217;-67
2023/01/01 10:45:46;;;;;;;9.50;7.10;;;12.30;99.90;;;;;;5011751;28;20202;-66
2023/01/01 10:48:17;;;;;;;9.23;6.57;;;12.30;99.90;;;;;;5006073;28;20273;-66
2023/01/01 10:50:48;;;;;;;10.93;7.20;;;12.30;99.90;;;;;;5002953;28;20202;-66
2023/01/01 10:53:27;;;;;;;11.33;7.00;;;12.30;99.90;;;;;;5009206;28;20202;-66
2023/01/01 10:56:02;;;;;;;11.37;7.07;;;12.40;99.90;;;;;;5009755;28;20216;-71
2023/01/01 10:58:36;;;;;;;10.97;7.20;;;12.40;99.90;;;;;;5012548;28;20230;-75
2023/01/01 11:01:05;;;;;;;10.60;7.17;;;12.40;99.90;;;;;;5015490;28;20721;-68
2023/01/01 11:03:34;;;;;;;11.70;7.20;;;12.40;99.90;;;;;;5013718;28;20289;-73
2023/01/01 11:06:10;;;;;;;11.53;7.00;;;12.50;99.90;;;;;;5016096;28;20199;-66
2023/01/01 11:08:40;;;;;;;10.17;7.10;;;12.50;99.90;;;;;;5013282;28;20203;-75
2023/01/01 11:11:17;;;;;;;9.10;6.30;;;12.50;99.90;;;;;;5015953;28;20604;-73
2023/01/01 11:13:49;;;;;;;10.43;6.50;;;12.50;99.90;;;;;;5011994;28;20206;-77
2023/01/01 11:16:16;;;;;;;8.43;6.37;;;12.50;99.90;;;;;;5005460;28;20284;-76
2023/01/01 11:18:44;;;;;;;9.23;6.47;;;12.50;99.90;;;;;;5015514;28;20219;-73
2023/01/01 11:21:18;;;;;;;9.43;6.60;;;12.60;99.90;;;;;;5016145;28;20664;-74
2023/01/01 11:23:45;;;;;;;9.27;6.67;;;12.60;99.90;;;;;;5014312;28;20202;-73
2023/01/01 11:26:23;;;;;;;10.37;6.83;;;12.60;99.90;;;;;;5015620;28;20302;-75
2023/01/01 11:29:01;;;;;;;9.97;6.53;;;12.70;99.90;;;;;;5014930;28;20211;-74
2023/01/01 11:31:30;;;;;;;8.57;6.87;;;12.70;99.90;;;;;;5015422;28;20206;-75
2023/01/01 11:33:58;;;;;;;9.63;6.20;;;12.80;99.90;;;;;;5015491;28;20202;-73
2023/01/01 11:36:27;;;;;;;10.57;6.40;;;12.80;99.90;;;;;;5014391;28;20243;-75
2023/01/01 11:39:07;;;;;;;8.90;6.00;;;12.80;99.90;;;;;;5008064;28;20223;-74
2023/01/01 11:41:46;;;;;;;7.20;6.10;;;12.80;99.90;;;;;;5013098;28;20214;-76
2023/01/01 11:44:25;;;;;;;7.90;6.37;;;12.90;99.90;;;;;;5011451;28;20206;-73
2023/01/01 11:46:52;;;;;;;8.77;6.07;;;12.90;99.90;;;;;;5023557;28;20208;-73
2023/01/01 11:49:25;;;;;;;7.40;5.97;;;12.90;99.90;;;;;;5006084;28;20574;-72
2023/01/01 11:51:52;;;;;;;9.57;6.10;;;13.00;99.90;;;;;;5014445;28;20199;-74
2023/01/01 11:54:31;;;;;;;8.67;5.97;;;13.00;99.90;;;;;;5014873;28;20234;-69
2023/01/01 11:57:04;;;;;;;7.77;5.77;;;13.10;99.90;;;;;;5012236;28;20191;-74
2023/01/01 11:59:41;;;;;;;9.70;7.00;;;13.10;99.90;;;;;;5010958;28;20226;-71
2023/01/01 12:02:14;;;;;;;9.00;6.37;;;13.10;99.90;;;;;;5004540;28;20205;-73
2023/01/01 12:04:47;;;;;;;8.57;5.97;;;13.10;99.90;;;;;;5011068;28;20203;-72
2023/01/01 12:07:18;;;;;;;8.53;6.77;;;13.10;99.90;;;;;;5011483;28;20202;-73
2023/01/01 12:09:52;;;;;;;8.43;6.40;;;13.10;99.90;;;;;;5012140;28;20671;-72
2023/01/01 12:12:26;;;;;;;8.03;6.27;;;13.10;99.90;;;;;;5009886;28;20209;-72
2023/01/01 12:15:02;;;;;;;9.23;6.73;;;13.10;99.90;;;;;;5011510;28;20444;-76
2023/01/01 12:17:34;;;;;;;8.50;6.40;;;13.10;99.90;;;;;;5011993;28;20543;-78
2023/01/01 12:20:05;;;;;;;11.40;6.33;;;13.20;99.90;;;;;;5013516;28;20558;-76
2023/01/01 12:22:32;;;;;;;10.07;6.23;;;13.20;99.90;;;;;;5013622;28;20563;-74
2023/01/01 12:25:00;;;;;;;10.43;6.43;;;13.20;99.90;;;;;;5013954;28;20602;-77
2023/01/01 12:27:41;;;;;;;9.63;6.70;;;13.20;99.90;;;;;;5013368;28;20203;-76
2023/01/01 12:30:19;;;;;;;9.73;6.27;;;13.20;99.90;;;;;;5015529;28;20555;-75
2023/01/01 12:33:20;;;;;;;9.87;6.40;;;13.20;99.90;;;;;;5014253;28;20203;-75
2023/01/01 12:36:07;;;;;;;8.63;6.10;;;13.10;99.90;;;;;;4990409;28;20235;-75
2023/01/01 12:39:04;;;;;;;11.37;7.80;;;13.10;99.90;;;;;;5009343;28;20699;-77
2023/01/01 12:41:37;;;;;;;12.70;7.93;;;13.10;99.90;;;;;;5011384;28;20206;-73
2023/01/01 12:44:16;;;;;;;8.33;6.20;;;13.10;99.90;;;;;;4997008;28;20510;-76
2023/01/01 12:46:49;;;;;;;9.70;6.57;;;13.10;99.90;;;;;;5010347;28;20207;-75
2023/01/01 12:49:27;;;;;;;9.90;6.53;;;13.10;99.90;;;;;;5010925;28;20219;-76
2023/01/01 12:52:06;;;;;;;7.93;6.27;;;13.10;99.90;;;;;;5015221;28;20595;-76
2023/01/01 12:55:17;;;;;;;8.80;6.07;;;13.10;99.90;;;;;;5015283;28;20191;-75
2023/01/01 12:57:49;;;;;;;11.30;6.10;;;13.10;99.90;;;;;;5015546;28;20209;-75